Airfield :
LOGIN :

Register | Disclaimer

   EN    FR    IT 

 










Legend :    VFR   Marginal VFR   IFR   Intensive IFR   Very Intensive IFR
Visi :
Ceiling :
>= 8 km
>= 3000ft
5 to 8 km
1000 to 3000 ft
1500m to 5 km
500 to 1000 ft
800 to 1500m
200 to 500 ft
< 800m
< 200 ft
Symbols :   Thunderstorms  Fog  Heavy snow  Heavy precipitations  Wind > 20 kt
SIGMETs :     Misc.  Thunderstorms  Icing  Turbulence  Mountain Waves  Volcanic Ashes






- Airport Elevation : 24 ft
- IATA code : IBZ


LEIB - Ibiza

CURRENT METAR :
  • 221430Z 08008KT 050V110 CAVOK 25/19 Q1011 NOSIG

EXPIRED METARs :
  • 221400Z 08008KT 040V110 CAVOK 25/19 Q1011 NOSIG
  • 221330Z 08007KT 050V140 CAVOK 26/19 Q1011 NOSIG
  • 221300Z 08007KT 050V110 CAVOK 26/18 Q1011 NOSIG
  • 221230Z 09007KT 040V120 CAVOK 26/18 Q1012 NOSIG
  • 221200Z 09007KT 060V130 CAVOK 25/15 Q1012 NOSIG

TAF TAF LEIB
Valid from the 22 at 15:00 until the 23 at 15:00 UTC


221400Z 2215/2315 12010KT CAVOK TX28/2312Z TN18/2306Z
BECMG 2219/2221 22010KT
TEMPO 2306/2312 35010KT



MET'MAP, your aeronautical weather chart ! - Copyright ORBIFLY December 2007 - Disclaimer

ORBIFLY MET'MAP TEAM :

Programming & Development : Alexandra Zaïnal
Original concept : Baudouin d'Aumeries
Technical & hardware support : Manuel Goepfert
Assistance : Marc-Olivier Méhu

Contact : metmap@orbifly.com




SOURCES & CREDITS :

   NOAA